Time;durP1;ratioP1;P1;durP2;ratioP2;P2;SDS_P1;SDS_P2;PMS_P1;PMS_P2;Temp;Humidity;BMP_temperature;BMP_pressure;BME280_temperature;BME280_humidity;BME280_pressure;Samples;Min_cycle;Max_cycle;Signal;HPM_P1;HPM_P2
2021/11/26 00:00:28;;;;;;;13.18;4.00;;;25.20;48.00;;;;;;5086615;28;20125;-71
2021/11/26 00:02:55;;;;;;;12.35;4.22;;;25.10;48.00;;;;;;5086655;28;20486;-71
2021/11/26 00:05:22;;;;;;;11.48;3.92;;;25.20;48.20;;;;;;5086326;28;20098;-73
2021/11/26 00:07:48;;;;;;;13.90;3.05;;;25.10;48.30;;;;;;5087455;28;20059;-71
2021/11/26 00:10:15;;;;;;;10.55;3.17;;;25.10;48.50;;;;;;5085420;28;20073;-71
2021/11/26 00:12:50;;;;;;;17.23;3.63;;;25.00;48.60;;;;;;5087294;28;20036;-72
2021/11/26 00:15:22;;;;;;;13.98;4.07;;;25.00;48.70;;;;;;5085365;28;20052;-72
2021/11/26 00:17:51;;;;;;;11.65;3.28;;;25.00;48.70;;;;;;5085739;28;20131;-71
2021/11/26 00:20:18;;;;;;;12.50;3.63;;;25.00;48.70;;;;;;5086365;28;20526;-71
2021/11/26 00:22:44;;;;;;;15.60;4.03;;;25.00;48.80;;;;;;5085443;28;20023;-73
2021/11/26 00:25:11;;;;;;;15.55;3.47;;;25.00;48.90;;;;;;5085449;28;20063;-72
2021/11/26 00:27:38;;;;;;;7.00;3.15;;;24.90;48.90;;;;;;5084747;28;20048;-70
2021/11/26 00:30:05;;;;;;;12.07;3.35;;;24.90;48.90;;;;;;5086166;28;20028;-72
2021/11/26 00:32:31;;;;;;;11.50;3.85;;;24.90;49.00;;;;;;5085159;28;20150;-71
2021/11/26 00:34:58;;;;;;;9.55;3.05;;;24.90;49.00;;;;;;5086777;28;20586;-72
2021/11/26 00:37:25;;;;;;;11.45;3.47;;;24.90;49.10;;;;;;5088116;28;20020;-71
2021/11/26 00:39:51;;;;;;;12.43;4.20;;;24.90;49.20;;;;;;5088840;28;20020;-71
2021/11/26 00:42:18;;;;;;;8.35;3.08;;;24.90;49.30;;;;;;5089492;28;20482;-74
2021/11/26 00:44:45;;;;;;;10.60;2.72;;;24.80;49.30;;;;;;5088670;28;20463;-72
2021/11/26 00:47:11;;;;;;;9.80;2.95;;;24.80;49.40;;;;;;5088075;28;20036;-71
2021/11/26 00:49:38;;;;;;;9.70;3.33;;;24.80;49.40;;;;;;5088835;28;20093;-72
2021/11/26 00:52:05;;;;;;;11.43;4.70;;;24.80;49.60;;;;;;5087641;28;20086;-71
2021/11/26 00:54:32;;;;;;;9.60;3.28;;;24.70;49.50;;;;;;5087238;28;20020;-72
2021/11/26 00:56:58;;;;;;;13.52;3.20;;;24.70;49.50;;;;;;5088134;28;20082;-73
2021/11/26 00:59:25;;;;;;;10.63;2.85;;;24.70;49.70;;;;;;5088889;28;20471;-71
2021/11/26 01:01:51;;;;;;;10.25;2.90;;;24.70;49.70;;;;;;5089153;28;20027;-72
2021/11/26 01:04:18;;;;;;;8.70;2.83;;;24.70;49.70;;;;;;5087857;28;20543;-71
2021/11/26 01:06:44;;;;;;;8.30;2.63;;;24.70;49.80;;;;;;5087407;28;20466;-72
2021/11/26 01:09:10;;;;;;;9.63;3.00;;;24.70;49.80;;;;;;5088233;28;20538;-71
2021/11/26 01:11:37;;;;;;;12.63;3.35;;;24.60;49.80;;;;;;5089016;28;20535;-71
2021/11/26 01:14:04;;;;;;;8.95;2.88;;;24.60;49.80;;;;;;5088407;28;20079;-73
2021/11/26 01:16:30;;;;;;;8.98;2.72;;;24.60;49.90;;;;;;5086777;28;20024;-71
2021/11/26 01:18:57;;;;;;;12.00;2.60;;;24.60;49.90;;;;;;5087761;28;20040;-71
2021/11/26 01:21:23;;;;;;;8.68;2.78;;;24.60;50.00;;;;;;5088201;28;20028;-71
2021/11/26 01:23:49;;;;;;;12.45;3.05;;;24.60;50.00;;;;;;5088262;28;20127;-72
2021/11/26 01:26:16;;;;;;;15.00;3.45;;;24.60;50.00;;;;;;5088663;28;20024;-71
2021/11/26 01:28:46;;;;;;;8.23;2.85;;;24.60;50.00;;;;;;5087791;28;20481;-72
2021/11/26 01:31:14;;;;;;;8.80;2.60;;;24.60;50.10;;;;;;5087198;28;20432;-71
2021/11/26 01:33:41;;;;;;;11.90;2.58;;;24.50;50.00;;;;;;5087835;28;20040;-71
2021/11/26 01:36:07;;;;;;;7.65;2.25;;;24.50;50.10;;;;;;5087039;28;20054;-71
2021/11/26 01:38:34;;;;;;;10.93;3.00;;;24.60;50.10;;;;;;5088647;28;20038;-73
2021/11/26 01:41:00;;;;;;;13.02;3.15;;;24.50;50.10;;;;;;5086132;28;20039;-71
2021/11/26 01:43:27;;;;;;;13.73;3.33;;;24.50;50.20;;;;;;5089010;28;20092;-71
2021/11/26 01:46:06;;;;;;;10.23;3.08;;;24.50;50.20;;;;;;5087388;28;20058;-70
2021/11/26 01:48:32;;;;;;;15.27;3.08;;;24.50;50.30;;;;;;5087428;28;20081;-71
2021/11/26 01:50:59;;;;;;;14.45;3.17;;;24.50;50.30;;;;;;5086491;28;20539;-72
2021/11/26 01:53:26;;;;;;;10.50;2.92;;;24.50;50.40;;;;;;5087525;28;20036;-71
2021/11/26 01:55:53;;;;;;;14.02;2.85;;;24.40;50.40;;;;;;5088862;28;20478;-71
2021/11/26 01:58:20;;;;;;;10.07;2.42;;;24.40;50.40;;;;;;5086472;28;20067;-72
2021/11/26 02:00:48;;;;;;;12.23;2.80;;;24.40;50.50;;;;;;5087123;28;20020;-71
2021/11/26 02:03:16;;;;;;;13.38;2.45;;;24.40;50.50;;;;;;5086638;28;20113;-71
2021/11/26 02:05:43;;;;;;;12.55;2.95;;;24.40;50.60;;;;;;5088787;28;20035;-74
2021/11/26 02:08:10;;;;;;;11.98;3.55;;;24.40;50.60;;;;;;5085183;28;20028;-73
2021/11/26 02:10:38;;;;;;;12.13;3.33;;;24.40;50.70;;;;;;5085603;28;20505;-70
2021/11/26 02:13:05;;;;;;;9.73;3.13;;;24.30;50.60;;;;;;5088043;28;20103;-71
2021/11/26 02:15:39;;;;;;;9.48;2.95;;;24.30;50.70;;;;;;5086023;28;20077;-72
2021/11/26 02:18:06;;;;;;;10.20;2.78;;;24.30;50.80;;;;;;5087501;28;20055;-71
2021/11/26 02:20:33;;;;;;;12.90;2.90;;;24.30;50.80;;;;;;5087322;28;20032;-71
2021/11/26 02:23:01;;;;;;;14.38;3.47;;;24.30;50.80;;;;;;5087600;28;20093;-71
2021/11/26 02:25:28;;;;;;;7.70;2.97;;;24.30;50.80;;;;;;5085670;28;20471;-71
2021/11/26 02:28:01;;;;;;;13.38;3.97;;;24.30;50.80;;;;;;5087192;28;20052;-71
2021/11/26 02:30:29;;;;;;;13.63;2.88;;;24.30;50.90;;;;;;5087108;28;20012;-71
2021/11/26 02:32:58;;;;;;;12.07;3.63;;;24.30;50.90;;;;;;5085846;28;20115;-72
2021/11/26 02:35:26;;;;;;;16.67;3.30;;;24.30;51.00;;;;;;5087622;28;20012;-75
2021/11/26 02:37:53;;;;;;;12.15;3.05;;;24.20;50.90;;;;;;5087490;28;20074;-72
2021/11/26 02:40:23;;;;;;;9.20;2.75;;;24.20;50.90;;;;;;5086772;28;20077;-71
2021/11/26 02:42:50;;;;;;;10.50;2.80;;;24.20;50.90;;;;;;5087071;28;20027;-73
2021/11/26 02:45:19;;;;;;;11.80;3.35;;;24.20;50.90;;;;;;5087588;28;20479;-71
2021/11/26 02:47:47;;;;;;;15.63;3.17;;;24.20;51.00;;;;;;5086981;28;20023;-71
2021/11/26 02:50:13;;;;;;;15.07;4.22;;;24.20;51.00;;;;;;5084670;28;20032;-71
2021/11/26 02:52:41;;;;;;;12.50;2.97;;;24.20;51.10;;;;;;5086917;28;20082;-71
2021/11/26 02:55:10;;;;;;;11.93;2.67;;;24.20;51.10;;;;;;5085600;28;20023;-71
2021/11/26 02:57:37;;;;;;;11.85;2.50;;;24.10;51.10;;;;;;5088146;28;20028;-72
2021/11/26 03:00:05;;;;;;;12.30;3.25;;;24.10;51.10;;;;;;5085384;28;20474;-71
2021/11/26 03:02:32;;;;;;;12.88;4.93;;;24.10;51.20;;;;;;5085597;28;20023;-71
2021/11/26 03:04:58;;;;;;;10.82;2.53;;;24.10;51.20;;;;;;5087399;28;20110;-71
2021/11/26 03:07:24;;;;;;;8.18;3.08;;;24.10;51.20;;;;;;5085525;28;20020;-72
2021/11/26 03:09:51;;;;;;;16.95;2.95;;;24.10;51.80;;;;;;5086859;28;20069;-71
2021/11/26 03:12:18;;;;;;;10.90;3.72;;;24.10;51.20;;;;;;5083950;28;20020;-72
2021/11/26 03:14:44;;;;;;;10.95;3.33;;;24.10;51.20;;;;;;5087006;28;20020;-72
2021/11/26 03:17:11;;;;;;;12.20;3.05;;;24.00;51.20;;;;;;5084001;28;20064;-71
2021/11/26 03:19:37;;;;;;;13.65;3.08;;;24.00;51.10;;;;;;5086178;28;20023;-71
2021/11/26 03:22:04;;;;;;;10.18;2.65;;;24.00;51.10;;;;;;5085134;28;20538;-73
2021/11/26 03:24:30;;;;;;;10.80;3.45;;;24.00;51.10;;;;;;5086586;28;20047;-71
2021/11/26 03:26:57;;;;;;;10.32;2.20;;;24.00;51.20;;;;;;5085495;28;20027;-71
2021/11/26 03:29:23;;;;;;;12.63;2.90;;;24.00;51.20;;;;;;5084764;28;20405;-71
2021/11/26 03:31:50;;;;;;;23.10;3.50;;;24.00;51.20;;;;;;5086889;28;20085;-72
2021/11/26 03:34:16;;;;;;;7.65;2.72;;;24.00;51.20;;;;;;5084225;28;20071;-71
2021/11/26 03:36:43;;;;;;;14.13;4.18;;;24.00;51.20;;;;;;5084846;28;20472;-71
2021/11/26 03:39:09;;;;;;;10.73;2.95;;;24.00;51.20;;;;;;5084497;28;20055;-71
2021/11/26 03:41:36;;;;;;;14.27;4.63;;;23.90;51.20;;;;;;5083630;28;20069;-70
2021/11/26 03:44:03;;;;;;;19.33;3.80;;;23.90;51.30;;;;;;5086884;28;20016;-74
2021/11/26 03:46:29;;;;;;;12.00;3.20;;;23.90;51.40;;;;;;5085344;28;20146;-73
2021/11/26 03:48:56;;;;;;;19.52;6.35;;;23.90;51.40;;;;;;5087053;28;20073;-74
2021/11/26 03:51:22;;;;;;;15.95;8.40;;;23.90;51.40;;;;;;5084356;28;20031;-72
2021/11/26 03:53:49;;;;;;;19.13;8.15;;;23.90;51.40;;;;;;5085578;28;20093;-72
2021/11/26 03:56:15;;;;;;;13.98;5.78;;;23.90;51.40;;;;;;5085952;28;20436;-71
2021/11/26 03:58:42;;;;;;;12.00;4.85;;;23.90;51.30;;;;;;5086073;28;20040;-70
2021/11/26 04:01:48;;;;;;;10.65;2.35;;;23.90;51.30;;;;;;5085156;28;20012;-71
2021/11/26 04:04:55;;;;;;;17.33;3.50;;;23.80;51.10;;;;;;5082652;28;20020;-70
2021/11/26 04:07:40;;;;;;;;;;;23.80;51.40;;;;;;5084810;28;20036;-71
2021/11/26 04:10:12;;;;;;;16.52;6.78;;;23.70;51.50;;;;;;5085942;28;19904;-74
2021/11/26 04:12:45;;;;;;;14.05;7.38;;;23.70;51.50;;;;;;5066181;28;20233;-73
2021/11/26 04:15:18;;;;;;;15.18;6.93;;;23.80;51.50;;;;;;5071904;28;20351;-71
2021/11/26 04:17:48;;;;;;;16.00;6.93;;;23.80;51.70;;;;;;5086375;28;20136;-71
2021/11/26 04:20:17;;;;;;;16.60;5.35;;;23.80;51.80;;;;;;5089805;28;20066;-71
2021/11/26 04:22:44;;;;;;;11.65;4.80;;;23.80;52.00;;;;;;5088957;28;20004;-70
2021/11/26 04:25:14;;;;;;;13.30;3.40;;;23.80;52.00;;;;;;5087432;28;20483;-74
2021/11/26 04:27:41;;;;;;;14.10;4.20;;;23.80;52.10;;;;;;5084070;28;20020;-73
2021/11/26 04:30:09;;;;;;;10.35;3.47;;;23.80;52.10;;;;;;5090630;28;20078;-73
2021/11/26 04:32:36;;;;;;;23.40;4.18;;;23.80;52.10;;;;;;5088578;28;20042;-71
2021/11/26 04:35:04;;;;;;;12.70;3.97;;;23.80;52.10;;;;;;5087173;28;20024;-74
2021/11/26 04:37:31;;;;;;;11.43;4.63;;;23.80;52.10;;;;;;5088293;28;20020;-75
2021/11/26 04:39:58;;;;;;;14.65;5.75;;;23.80;52.10;;;;;;5087053;28;20012;-75
2021/11/26 04:42:24;;;;;;;17.08;6.38;;;23.80;52.10;;;;;;5089977;28;20028;-72
2021/11/26 04:44:51;;;;;;;17.67;5.97;;;23.80;52.10;;;;;;5088111;28;20012;-76
2021/11/26 04:47:17;;;;;;;14.10;5.50;;;23.80;52.10;;;;;;5087148;28;20059;-70
2021/11/26 04:49:44;;;;;;;11.25;5.40;;;23.80;52.10;;;;;;5085891;28;21412;-72
2021/11/26 04:52:10;;;;;;;14.32;4.75;;;23.80;52.10;;;;;;5089188;28;20070;-74
2021/11/26 04:54:37;;;;;;;12.73;4.15;;;23.90;52.20;;;;;;5086031;28;20036;-76
2021/11/26 04:57:03;;;;;;;10.32;3.75;;;23.90;52.20;;;;;;5085528;28;20097;-72
2021/11/26 04:59:30;;;;;;;13.70;3.58;;;23.90;52.30;;;;;;5086187;28;20024;-74
2021/11/26 05:01:56;;;;;;;19.55;3.70;;;23.90;52.30;;;;;;5084158;28;20024;-77
2021/11/26 05:04:23;;;;;;;14.25;4.00;;;23.90;52.40;;;;;;5086609;28;20671;-73
2021/11/26 05:06:50;;;;;;;14.27;3.00;;;23.90;52.50;;;;;;5084791;28;20024;-73
2021/11/26 05:09:16;;;;;;;12.63;3.42;;;24.00;52.40;;;;;;5086165;28;20023;-72
2021/11/26 05:11:43;;;;;;;12.88;3.33;;;23.90;52.30;;;;;;5087025;28;20055;-74
2021/11/26 05:14:09;;;;;;;9.68;2.63;;;24.00;52.30;;;;;;5086673;28;20032;-76
2021/11/26 05:16:36;;;;;;;7.75;3.60;;;24.00;52.20;;;;;;5087828;28;20024;-72
2021/11/26 05:19:03;;;;;;;9.93;3.25;;;24.10;52.20;;;;;;5087345;28;20040;-76
2021/11/26 05:21:29;;;;;;;13.85;2.80;;;24.10;52.10;;;;;;5088482;28;20475;-72
2021/11/26 05:23:56;;;;;;;8.73;3.17;;;24.10;52.00;;;;;;5086983;28;20005;-73
2021/11/26 05:26:22;;;;;;;7.70;2.53;;;24.20;52.00;;;;;;5085345;28;20028;-71
2021/11/26 05:28:49;;;;;;;10.85;2.70;;;24.20;51.90;;;;;;5088741;28;20024;-74
2021/11/26 05:31:15;;;;;;;7.38;2.42;;;24.30;51.90;;;;;;5088659;28;20035;-71
2021/11/26 05:33:42;;;;;;;11.73;2.60;;;24.30;51.80;;;;;;5088392;28;20026;-71
2021/11/26 05:36:08;;;;;;;8.15;2.55;;;24.40;51.70;;;;;;5086793;28;20023;-75
2021/11/26 05:38:35;;;;;;;15.45;3.53;;;24.40;51.50;;;;;;5087709;28;20024;-74
2021/11/26 05:41:01;;;;;;;10.73;2.05;;;24.50;51.40;;;;;;5085635;28;20495;-72
2021/11/26 05:43:28;;;;;;;11.50;2.45;;;24.60;51.20;;;;;;5087279;28;20016;-71
2021/11/26 05:45:54;;;;;;;10.80;3.20;;;24.60;51.10;;;;;;5087642;28;20122;-74
2021/11/26 05:48:21;;;;;;;7.63;2.63;;;24.60;51.00;;;;;;5087998;28;20036;-75
2021/11/26 05:50:47;;;;;;;8.48;2.40;;;24.60;50.80;;;;;;5086970;28;20020;-71
2021/11/26 05:53:14;;;;;;;7.40;2.78;;;24.60;50.70;;;;;;5087453;28;20386;-73
2021/11/26 05:55:41;;;;;;;7.60;2.97;;;24.60;50.60;;;;;;5087381;28;20020;-74
2021/11/26 05:58:07;;;;;;;6.85;2.80;;;24.60;50.60;;;;;;5085582;28;20059;-72
2021/11/26 06:00:34;;;;;;;7.60;2.50;;;24.70;50.50;;;;;;5086569;28;20016;-72
2021/11/26 06:03:02;;;;;;;12.52;3.70;;;24.70;50.40;;;;;;5086433;28;20051;-71
2021/11/26 06:05:29;;;;;;;13.00;3.20;;;24.70;50.30;;;;;;5088258;28;20008;-72
2021/11/26 06:07:55;;;;;;;12.45;4.57;;;24.70;50.20;;;;;;5085119;28;20106;-72
2021/11/26 06:10:23;;;;;;;6.38;3.65;;;24.80;50.20;;;;;;5087340;28;20602;-74
2021/11/26 06:12:51;;;;;;;10.30;2.85;;;24.80;50.20;;;;;;5087590;28;20028;-74
2021/11/26 06:15:20;;;;;;;10.00;2.90;;;24.80;50.10;;;;;;5086712;28;20027;-72
2021/11/26 06:17:47;;;;;;;10.85;3.42;;;24.80;50.10;;;;;;5087943;28;20048;-74
2021/11/26 06:20:15;;;;;;;15.90;3.58;;;24.80;50.00;;;;;;5085995;28;20114;-73
2021/11/26 06:22:41;;;;;;;12.57;3.38;;;24.90;50.10;;;;;;5087630;28;20020;-71
2021/11/26 06:25:10;;;;;;;9.95;2.58;;;24.80;49.90;;;;;;5083571;28;20020;-72
2021/11/26 06:27:37;;;;;;;10.75;3.05;;;24.90;49.90;;;;;;5086441;28;20712;-74
2021/11/26 06:30:06;;;;;;;9.02;3.03;;;24.90;49.80;;;;;;5086090;28;20062;-71
2021/11/26 06:32:32;;;;;;;12.18;3.25;;;24.90;49.70;;;;;;5087133;28;20016;-74
2021/11/26 06:34:59;;;;;;;10.80;2.65;;;24.90;49.70;;;;;;5086739;28;20028;-73
2021/11/26 06:37:25;;;;;;;10.45;3.05;;;25.00;49.80;;;;;;5087102;28;20478;-74
2021/11/26 06:39:52;;;;;;;16.55;3.10;;;25.00;49.60;;;;;;5084046;28;20012;-72
2021/11/26 06:42:18;;;;;;;13.40;3.75;;;25.00;49.60;;;;;;5086496;28;21671;-75
2021/11/26 06:44:45;;;;;;;10.65;4.05;;;25.00;49.60;;;;;;5086337;28;20483;-70
2021/11/26 06:47:11;;;;;;;7.97;3.25;;;25.10;49.70;;;;;;5087294;28;20418;-74
2021/11/26 06:49:38;;;;;;;9.90;2.92;;;25.10;49.70;;;;;;5086460;28;20047;-74
2021/11/26 06:52:05;;;;;;;7.88;2.80;;;25.10;49.70;;;;;;5085435;28;20035;-74
2021/11/26 06:54:31;;;;;;;13.52;5.60;;;25.10;49.60;;;;;;5086382;28;20024;-71
2021/11/26 06:56:58;;;;;;;8.20;2.75;;;25.20;49.70;;;;;;5085269;28;20043;-73
2021/11/26 06:59:25;;;;;;;14.32;2.95;;;25.20;49.70;;;;;;5084938;28;20355;-75
2021/11/26 07:01:52;;;;;;;11.23;2.75;;;25.20;49.60;;;;;;5084890;28;20032;-73
2021/11/26 07:04:18;;;;;;;13.45;3.75;;;25.20;49.60;;;;;;5086605;28;20051;-74
2021/11/26 07:06:45;;;;;;;9.38;2.67;;;25.20;49.60;;;;;;5085977;28;20016;-72
2021/11/26 07:09:11;;;;;;;12.80;3.45;;;25.20;49.60;;;;;;5084913;28;20020;-74
2021/11/26 07:11:38;;;;;;;10.18;3.10;;;25.20;49.60;;;;;;5085761;28;20360;-74
2021/11/26 07:14:05;;;;;;;7.60;2.90;;;25.20;49.70;;;;;;5086812;28;20071;-75
2021/11/26 07:16:31;;;;;;;15.95;3.10;;;25.20;49.80;;;;;;5084023;28;20013;-73
2021/11/26 07:18:58;;;;;;;7.95;2.83;;;25.20;49.80;;;;;;5086595;28;20498;-72
2021/11/26 07:21:24;;;;;;;10.88;2.28;;;25.20;49.80;;;;;;5085280;28;20075;-73
2021/11/26 07:23:51;;;;;;;9.38;3.22;;;25.20;49.80;;;;;;5086169;28;20067;-74
2021/11/26 07:26:17;;;;;;;9.70;2.95;;;25.20;49.80;;;;;;5086437;28;20650;-73
2021/11/26 07:28:44;;;;;;;10.30;3.70;;;25.20;49.80;;;;;;5084917;28;20031;-74
2021/11/26 07:31:11;;;;;;;17.48;3.47;;;25.20;49.80;;;;;;5085172;28;20059;-72
2021/11/26 07:33:37;;;;;;;7.70;2.88;;;25.20;49.70;;;;;;5085973;28;20039;-75
2021/11/26 07:36:06;;;;;;;6.82;2.30;;;25.30;49.60;;;;;;5086615;28;20020;-75
2021/11/26 07:38:34;;;;;;;10.43;3.67;;;25.30;49.20;;;;;;5084521;28;20022;-72
2021/11/26 07:41:01;;;;;;;10.90;3.78;;;25.30;48.80;;;;;;5068061;28;20037;-72
2021/11/26 07:43:28;;;;;;;10.20;2.78;;;25.40;48.90;;;;;;5084640;28;20028;-72
2021/11/26 07:45:56;;;;;;;11.18;2.85;;;25.40;49.10;;;;;;5089222;28;20073;-73
2021/11/26 07:48:22;;;;;;;7.38;2.55;;;25.50;49.20;;;;;;5088913;28;20463;-74
2021/11/26 07:50:49;;;;;;;18.67;3.33;;;25.60;49.20;;;;;;5087825;28;20087;-73
2021/11/26 07:53:15;;;;;;;9.10;3.17;;;25.60;49.10;;;;;;5089666;28;20028;-73
2021/11/26 07:55:42;;;;;;;12.73;3.17;;;25.70;49.00;;;;;;5089098;28;20020;-71
2021/11/26 07:58:10;;;;;;;11.77;3.00;;;25.80;49.00;;;;;;5088832;28;20036;-73
2021/11/26 08:00:36;;;;;;;9.65;2.92;;;25.90;49.00;;;;;;5090412;28;20482;-75
2021/11/26 08:03:03;;;;;;;7.10;2.88;;;25.90;49.00;;;;;;5087964;28;20095;-70
2021/11/26 08:05:31;;;;;;;11.25;2.58;;;26.00;49.00;;;;;;5087690;28;20024;-71
2021/11/26 08:07:59;;;;;;;7.80;2.78;;;26.10;48.90;;;;;;5090098;28;20169;-70
2021/11/26 08:10:26;;;;;;;8.85;2.05;;;26.10;48.90;;;;;;5087632;28;20024;-71
2021/11/26 08:12:53;;;;;;;7.63;1.95;;;26.20;48.90;;;;;;5088723;28;20122;-69
2021/11/26 08:15:20;;;;;;;5.80;2.28;;;26.20;48.70;;;;;;5090334;28;20020;-75
2021/11/26 08:17:47;;;;;;;9.77;3.55;;;26.30;48.80;;;;;;5089919;28;20036;-73
2021/11/26 08:20:17;;;;;;;8.70;2.40;;;26.20;48.70;;;;;;5090529;28;20020;-70
2021/11/26 08:22:45;;;;;;;11.25;3.25;;;26.30;48.70;;;;;;5087203;28;20024;-73
2021/11/26 08:25:12;;;;;;;6.25;2.20;;;26.30;48.80;;;;;;5088539;28;20016;-74
2021/11/26 08:27:38;;;;;;;6.85;2.25;;;26.20;48.70;;;;;;5090325;28;20027;-72
2021/11/26 08:30:05;;;;;;;14.93;2.88;;;26.20;48.60;;;;;;5088446;28;20111;-74
2021/11/26 08:32:33;;;;;;;10.40;2.40;;;26.20;48.60;;;;;;5090860;28;20081;-72
2021/11/26 08:34:59;;;;;;;5.13;2.40;;;26.10;48.60;;;;;;5089189;28;20027;-71
2021/11/26 08:37:26;;;;;;;8.77;2.58;;;26.10;48.80;;;;;;5088861;28;20188;-74
2021/11/26 08:39:52;;;;;;;10.18;2.78;;;26.20;48.80;;;;;;5089628;28;20013;-72
2021/11/26 08:42:19;;;;;;;10.68;3.15;;;26.10;48.80;;;;;;5088704;28;20020;-71
2021/11/26 08:44:45;;;;;;;8.48;2.58;;;26.20;48.80;;;;;;5089082;28;20129;-74
2021/11/26 08:47:12;;;;;;;14.85;4.30;;;26.20;48.70;;;;;;5086685;28;20025;-74
2021/11/26 08:49:38;;;;;;;7.00;2.22;;;26.30;48.80;;;;;;5088420;28;20390;-74
2021/11/26 08:52:05;;;;;;;8.88;2.38;;;26.40;48.80;;;;;;5086467;28;20060;-75
2021/11/26 08:54:33;;;;;;;8.68;2.03;;;26.40;48.70;;;;;;5090144;28;20117;-70
2021/11/26 08:57:01;;;;;;;11.82;2.42;;;26.60;48.60;;;;;;5087525;28;20024;-67
2021/11/26 08:59:27;;;;;;;6.13;2.25;;;26.70;48.30;;;;;;5089167;28;20020;-69
2021/11/26 09:01:54;;;;;;;8.25;2.15;;;26.80;48.00;;;;;;5090163;28;20546;-71
2021/11/26 09:04:22;;;;;;;7.25;2.40;;;26.90;47.80;;;;;;5088527;28;20035;-70
2021/11/26 09:06:52;;;;;;;8.50;2.08;;;27.00;47.50;;;;;;5089555;28;20032;-70
2021/11/26 09:09:22;;;;;;;8.23;2.72;;;27.20;47.30;;;;;;5087537;28;20020;-73
2021/11/26 09:11:50;;;;;;;6.07;2.30;;;27.30;47.20;;;;;;5089171;28;20016;-71
2021/11/26 09:14:17;;;;;;;4.63;2.08;;;27.30;47.00;;;;;;5087953;28;20028;-70
2021/11/26 09:16:44;;;;;;;6.00;2.47;;;27.40;46.70;;;;;;5086837;28;20501;-73
2021/11/26 09:19:10;;;;;;;11.48;2.08;;;27.50;46.50;;;;;;5086307;28;20127;-73
2021/11/26 09:21:37;;;;;;;10.63;3.13;;;27.40;46.30;;;;;;5088938;28;20016;-72
2021/11/26 09:24:04;;;;;;;10.50;4.43;;;27.40;46.20;;;;;;5087716;28;20964;-72
2021/11/26 09:26:37;;;;;;;9.45;4.30;;;27.50;46.20;;;;;;5079898;28;20027;-73
2021/11/26 09:29:20;;;;;;;12.88;3.05;;;27.50;46.10;;;;;;5085527;28;20028;-73
2021/11/26 09:31:48;;;;;;;8.82;2.60;;;27.50;46.20;;;;;;5086531;28;20031;-73
2021/11/26 09:34:17;;;;;;;15.63;3.10;;;27.50;46.10;;;;;;5086084;28;20114;-75
2021/11/26 09:36:46;;;;;;;6.40;2.00;;;27.50;46.00;;;;;;5085151;28;20035;-73
2021/11/26 09:39:17;;;;;;;6.78;2.63;;;27.50;46.20;;;;;;5082848;28;20108;-73
2021/11/26 09:41:43;;;;;;;12.13;2.50;;;27.50;46.10;;;;;;5085085;28;20008;-71
2021/11/26 09:44:15;;;;;;;4.65;1.70;;;27.50;46.40;;;;;;5087794;28;20088;-71
2021/11/26 09:46:44;;;;;;;10.30;5.18;;;27.50;47.10;;;;;;5084330;28;20031;-72
2021/11/26 09:49:10;;;;;;;8.02;3.05;;;27.50;47.30;;;;;;5085628;28;20039;-73
2021/11/26 09:51:38;;;;;;;6.80;3.28;;;27.50;47.30;;;;;;5083427;28;20102;-71
2021/11/26 09:54:10;;;;;;;9.07;2.60;;;27.60;47.10;;;;;;5081079;28;20067;-71
2021/11/26 09:56:38;;;;;;;6.85;2.30;;;27.50;46.90;;;;;;5084563;28;20372;-74
2021/11/26 09:59:11;;;;;;;7.85;2.13;;;27.60;46.90;;;;;;5086699;28;20036;-73
2021/11/26 10:01:38;;;;;;;6.88;2.40;;;27.60;47.00;;;;;;5083243;28;20383;-71
2021/11/26 10:04:17;;;;;;;8.35;2.47;;;27.60;47.00;;;;;;5083550;28;20536;-72
2021/11/26 10:06:44;;;;;;;8.07;2.83;;;27.50;46.90;;;;;;5086066;28;20027;-74
2021/11/26 10:09:11;;;;;;;5.25;2.33;;;27.50;46.80;;;;;;5083421;28;20104;-70
2021/11/26 10:11:49;;;;;;;7.43;2.25;;;27.50;46.70;;;;;;5084693;28;20467;-73
2021/11/26 10:14:31;;;;;;;7.03;2.17;;;27.50;46.70;;;;;;5082584;28;20044;-72
2021/11/26 10:17:14;;;;;;;10.15;2.33;;;27.50;46.80;;;;;;5087732;28;20019;-71
2021/11/26 10:19:47;;;;;;;7.55;2.50;;;27.50;46.90;;;;;;5061381;28;20490;-70
2021/11/26 10:22:20;;;;;;;9.55;2.28;;;27.50;47.00;;;;;;5082911;28;20072;-71
2021/11/26 10:25:13;;;;;;;9.02;2.78;;;27.40;47.20;;;;;;5084384;28;20020;-72
2021/11/26 10:27:47;;;;;;;9.07;3.10;;;27.40;47.00;;;;;;5080762;28;20051;-72
2021/11/26 10:30:18;;;;;;;14.57;3.17;;;27.40;47.00;;;;;;5084714;28;20048;-72
2021/11/26 10:33:06;;;;;;;9.43;3.15;;;27.30;47.10;;;;;;5084638;28;20028;-71
2021/11/26 10:35:37;;;;;;;7.03;2.30;;;27.30;47.30;;;;;;5082782;28;20368;-71
2021/11/26 10:38:08;;;;;;;8.30;2.33;;;27.30;47.40;;;;;;5082938;28;20662;-72
2021/11/26 10:40:39;;;;;;;10.25;2.35;;;27.30;47.50;;;;;;5085252;28;20043;-70
2021/11/26 10:43:12;;;;;;;12.68;3.90;;;27.30;47.50;;;;;;5083593;28;20027;-72
2021/11/26 10:56:54;;;;;;;7.05;2.45;;;27.20;47.70;;;;;;5086695;28;20062;-72
2021/11/26 10:59:32;;;;;;;9.27;2.35;;;27.20;47.80;;;;;;5086338;28;20024;-73
2021/11/26 11:01:59;;;;;;;6.15;2.42;;;27.10;47.70;;;;;;5087108;28;20359;-73
2021/11/26 11:04:27;;;;;;;6.47;2.20;;;27.10;47.70;;;;;;5087690;28;20409;-73
2021/11/26 11:07:09;;;;;;;10.23;2.30;;;27.10;47.80;;;;;;5086063;28;20027;-73
2021/11/26 11:09:56;;;;;;;6.53;2.25;;;27.10;47.80;;;;;;5086611;28;20452;-73
2021/11/26 11:12:32;;;;;;;11.50;2.50;;;27.00;47.80;;;;;;5087596;28;20032;-72
2021/11/26 11:15:02;;;;;;;5.30;2.17;;;27.00;48.30;;;;;;5084010;28;20039;-72
2021/11/26 11:17:30;;;;;;;6.80;2.20;;;27.00;48.90;;;;;;5086123;28;20044;-72
2021/11/26 11:20:01;;;;;;;13.75;3.83;;;26.90;49.10;;;;;;5086249;28;20812;-71
2021/11/26 11:22:30;;;;;;;5.45;1.98;;;26.90;49.40;;;;;;5084690;28;20024;-70
2021/11/26 11:24:56;;;;;;;7.72;2.08;;;26.90;50.50;;;;;;5086968;28;20106;-70
2021/11/26 11:27:23;;;;;;;8.55;3.10;;;26.90;51.60;;;;;;5085599;28;20399;-71
2021/11/26 11:29:50;;;;;;;6.95;2.25;;;26.90;52.30;;;;;;5085408;28;20445;-70
2021/11/26 11:32:18;;;;;;;7.90;2.20;;;26.80;52.90;;;;;;5086739;28;20031;-70
2021/11/26 11:34:46;;;;;;;9.52;2.22;;;26.80;53.80;;;;;;5085656;28;20119;-70
2021/11/26 11:37:18;;;;;;;7.45;1.85;;;26.70;54.10;;;;;;5086469;28;20032;-70
2021/11/26 11:39:51;;;;;;;6.57;1.98;;;26.70;54.00;;;;;;5086876;28;20570;-71
2021/11/26 11:42:31;;;;;;;5.47;1.75;;;26.60;53.90;;;;;;5084291;28;20024;-70
2021/11/26 11:45:08;;;;;;;10.57;2.30;;;26.60;54.20;;;;;;5090834;28;20528;-70
2021/11/26 11:48:06;;;;;;;8.07;2.25;;;26.60;54.60;;;;;;5095867;28;20028;-71
2021/11/26 11:50:42;;;;;;;12.93;5.72;;;26.60;54.90;;;;;;5095010;28;20101;-68
2021/11/26 11:53:42;;;;;;;31.30;20.77;;;26.50;54.60;;;;;;5073873;28;20028;-69
2021/11/26 11:56:16;;;;;;;12.00;6.93;;;26.50;54.90;;;;;;5089264;28;20129;-69
2021/11/26 11:58:59;;;;;;;14.18;5.85;;;26.50;55.00;;;;;;5064995;28;20024;-71
2021/11/26 12:01:45;;;;;;;11.45;3.67;;;26.40;54.90;;;;;;5076272;28;20016;-72
2021/11/26 12:04:18;;;;;;;8.85;3.85;;;26.50;55.20;;;;;;5096429;28;20514;-73
2021/11/26 12:06:53;;;;;;;12.23;3.72;;;26.40;54.60;;;;;;5087891;28;20379;-75
2021/11/26 12:09:31;;;;;;;13.03;4.13;;;26.40;54.50;;;;;;5091631;28;20020;-72
2021/11/26 12:12:13;;;;;;;10.40;4.07;;;26.20;53.90;;;;;;5093554;28;20319;-70
2021/11/26 12:14:54;;;;;;;12.02;3.80;;;26.20;53.60;;;;;;5089933;28;20123;-74
2021/11/26 12:17:39;;;;;;;11.90;4.07;;;26.00;53.20;;;;;;5093359;28;20070;-72
2021/11/26 12:20:25;;;;;;;11.52;3.00;;;25.90;53.10;;;;;;5097296;28;20111;-73
2021/11/26 12:23:22;;;;;;;9.15;4.13;;;25.80;53.10;;;;;;5089608;28;20107;-71
2021/11/26 12:26:14;;;;;;;7.05;2.60;;;25.80;53.30;;;;;;5091539;28;20040;-73
2021/11/26 12:29:13;;;;;;;11.32;3.30;;;25.70;53.50;;;;;;5094444;28;20040;-73
2021/11/26 12:31:41;;;;;;;13.18;3.15;;;25.60;53.50;;;;;;5088156;28;20032;-72
2021/11/26 12:34:14;;;;;;;84.57;71.40;;;25.60;53.70;;;;;;5099089;28;20043;-72
2021/11/26 12:37:01;;;;;;;17.85;6.38;;;25.40;55.20;;;;;;5069907;28;20028;-72
2021/11/26 12:39:40;;;;;;;;;;;25.20;56.00;;;;;;5086924;28;20039;-70
2021/11/26 12:42:18;;;;;;;10.07;4.13;;;24.80;57.00;;;;;;5083867;28;20365;-73
2021/11/26 12:45:16;;;;;;;9.95;3.55;;;24.60;59.00;;;;;;5084971;28;20031;-72
2021/11/26 12:47:58;;;;;;;11.10;3.63;;;24.40;59.80;;;;;;5070075;28;20105;-72
2021/11/26 12:53:23;;;;;;;14.70;3.20;;;24.10;60.20;;;;;;5083491;28;20034;-72
2021/11/26 12:56:21;;;;;;;16.05;3.67;;;24.00;60.80;;;;;;5084270;28;20052;-70
2021/11/26 12:58:52;;;;;;;18.98;4.32;;;23.90;61.00;;;;;;5083744;28;20032;-67
2021/11/26 13:01:31;;;;;;;12.23;3.53;;;23.80;60.80;;;;;;5084354;28;20047;-71
2021/11/26 13:04:01;;;;;;;12.38;2.97;;;23.80;61.40;;;;;;5066984;28;20111;-70
2021/11/26 13:06:30;;;;;;;7.63;2.97;;;23.80;61.30;;;;;;5079655;28;20126;-71